Mariella — OITI — position and weather

sailwx.info

Track history (hours):
 
Tides and Currents Weather Stations Pressure Air Temp Water Temp Dewpoint Dewpoint Depression Visibility Wind Speed Wind Dir Waves Ship Positions

Mariella

Last reported at 2018-Jun-23 01:00 UTC. Time now 2018-Jun-23 00:57 UTC.
Position N 59°35' E 022°25'.

Length 177 m; draft 6.7 m.

Type: Ship (hazmat cat A). MMSI: 230181000.

Date/timePositionNaut miles runAvg speedWind from/ knotsBaromVisibWave heightAir tempDewpointWater temp
2018-Jun-23 01:00N 59°35' E 022°25'1019.0
2018-Jun-23 00:30N 59°33' E 022°07'1018.8
2018-Jun-22 23:57N 59°32' E 021°47'918.9
2018-Jun-22 23:30N 59°32' E 021°30'919.0
2018-Jun-22 23:01N 59°34' E 021°12'3618.5
2018-Jun-22 21:03N 59°50' E 020°07'118.8
2018-Jun-22 20:59N 59°50' E 020°05'13 6.4
2018-Jun-22 19:00N 59°57' E 019°43'1019.9
2018-Jun-22 18:30N 59°50' E 019°29'1019.6
2018-Jun-22 18:00N 59°44' E 019°13'918.4
2018-Jun-22 17:30N 59°40' E 018°57'611.4
2018-Jun-22 17:00N 59°37' E 018°48'612.4
2018-Jun-22 16:30N 59°34' E 018°38'510.1
2018-Jun-22 16:00N 59°31' E 018°30'611.6
2018-Jun-22 15:31N 59°26' E 018°24'4 7.9
2018-Jun-22 15:00N 59°22' E 018°25'510.6
2018-Jun-22 14:30N 59°21' E 018°14'5 9.6
2018-Jun-22 14:00N 59°19' E 018°06'0 0.1
2018-Jun-22 13:30N 59°19' E 018°06'0 0.0
2018-Jun-22 13:00N 59°19' E 018°06'0 0.0
2018-Jun-22 12:30N 59°19' E 018°06'0 0.0
2018-Jun-22 12:00N 59°19' E 018°06'0 0.0
2018-Jun-22 11:30N 59°19' E 018°06'0 0.0
2018-Jun-22 11:00N 59°19' E 018°06'0 0.0
2018-Jun-22 10:30N 59°19' E 018°06'0 0.0
2018-Jun-22 10:00N 59°19' E 018°06'0 0.0
2018-Jun-22 09:30N 59°19' E 018°06'0 0.0
2018-Jun-22 09:00N 59°19' E 018°06'0 0.0
2018-Jun-22 08:30N 59°19' E 018°06'0 0.0
2018-Jun-22 08:00N 59°19' E 018°06'1 1.7
2018-Jun-22 07:30N 59°19' E 018°07'510.6
2018-Jun-22 07:00N 59°22' E 018°16'510.7
2018-Jun-22 06:30N 59°22' E 018°27'510.2
2018-Jun-22 06:00N 59°26' E 018°24'611.2
2018-Jun-22 05:30N 59°31' E 018°31'510.2
2018-Jun-22 05:00N 59°34' E 018°39'612.3
2018-Jun-22 04:30N 59°37' E 018°49'611.3
2018-Jun-22 04:00N 59°41' E 018°58'815.9
2018-Jun-22 03:30N 59°44' E 019°12'816.0
2018-Jun-22 03:00N 59°49' E 019°24'816.2
2018-Jun-22 02:30N 59°55' E 019°36'4411.4
2018-Jun-21 22:39N 59°39' E 020°57'319.9
2018-Jun-21 22:30N 59°38' E 021°03'1019.9
2018-Jun-21 22:00N 59°35' E 021°21'1019.6
2018-Jun-21 21:30N 59°33' E 021°40'1618.1
2018-Jun-21 20:36N 59°34' E 022°12'1818.3
2018-Jun-21 19:36N 59°37' E 022°48'218.3
2018-Jun-21 19:30N 59°37' E 022°51'918.4
2018-Jun-21 19:00N 59°39' E 023°09'918.2
2018-Jun-21 18:30N 59°41' E 023°27'918.2
2018-Jun-21 18:00N 59°44' E 023°44'918.2
2018-Jun-21 17:30N 59°46' E 024°01'1120.2
2018-Jun-21 16:58N 59°50' E 024°22'816.4
2018-Jun-21 16:30N 59°53' E 024°35'918.3
2018-Jun-21 16:00N 59°58' E 024°51'917.8
2018-Jun-21 15:30N 60°06' E 024°59'4 7.9
2018-Jun-21 15:00N 60°10' E 024°58'0 0.0
2018-Jun-21 14:30N 60°10' E 024°58'0 0.0
2018-Jun-21 14:00N 60°10' E 024°58'2 3.1
2018-Jun-21 13:31N 60°09' E 024°60'917.0
2018-Jun-21 13:00N 60°00' E 024°57'919.2
2018-Jun-21 12:30N 59°51' E 024°53'1019.2
2018-Jun-21 12:00N 59°42' E 024°46'918.1
2018-Jun-21 11:30N 59°33' E 024°43'713.4
2018-Jun-21 11:01N 59°27' E 024°46'0 0.1
2018-Jun-21 10:31N 59°27' E 024°46'1 1.7
2018-Jun-21 10:01N 59°27' E 024°47'1019.7
2018-Jun-21 09:30N 59°36' E 024°40'1019.9
2018-Jun-21 08:59N 59°45' E 024°50'1020.0
2018-Jun-21 08:30N 59°55' E 024°55'1020.4
2018-Jun-21 08:00N 60°05' E 024°58'510.0
2018-Jun-21 07:29N 60°10' E 024°58'0 0.0
2018-Jun-21 06:56N 60°10' E 024°58'0 0.0
2018-Jun-21 06:30N 60°10' E 024°58'0 0.1
2018-Jun-21 06:00N 60°10' E 024°58'612.3
2018-Jun-21 05:31N 60°04' E 024°58'917.9
2018-Jun-21 05:01N 59°57' E 024°47'1019.2
2018-Jun-21 04:30N 59°52' E 024°30'1319.0
2018-Jun-21 03:50N 59°48' E 024°06'619.2
2018-Jun-21 03:30N 59°46' E 023°54'1019.1
2018-Jun-21 03:00N 59°43' E 023°36'918.9
2018-Jun-21 02:31N 59°41' E 023°18'918.9
2018-Jun-21 02:01N 59°40' E 022°59'1419.0
2018-Jun-21 01:17N 59°37' E 022°33'518.9
2018-Jun-21 01:00N 59°35' E 022°23'1618.8
2018-Jun-21 00:11N 59°32' E 021°53'318.6
2018-Jun-21 00:01N 59°32' E 021°47'918.8
2018-Jun-20 23:31N 59°33' E 021°28'1019.0
2018-Jun-20 23:00N 59°35' E 021°10'4812.6
2018-Jun-20 19:10N 59°58' E 019°46'321.2
2018-Jun-20 19:01N 59°56' E 019°41'1121.0
2018-Jun-20 18:30N 59°48' E 019°26'1020.5
2018-Jun-20 18:00N 59°43' E 019°08'816.0
2018-Jun-20 17:31N 59°39' E 018°55'612.1
2018-Jun-20 17:01N 59°36' E 018°45'611.6
2018-Jun-20 16:30N 59°33' E 018°35'510.4
2018-Jun-20 16:00N 59°29' E 018°27'510.3
2018-Jun-20 15:30N 59°24' E 018°26'3 6.1
2018-Jun-20 15:00N 59°22' E 018°22'611.4
2018-Jun-20 14:30N 59°20' E 018°12'3 6.4
2018-Jun-20 14:00N 59°19' E 018°06'0 0.0
2018-Jun-20 13:30N 59°19' E 018°06'0 0.0
2018-Jun-20 13:00N 59°19' E 018°06'0 0.0
2018-Jun-20 12:30N 59°19' E 018°06'0 0.0
2018-Jun-20 12:00N 59°19' E 018°06'0 0.0
2018-Jun-20 11:30N 59°19' E 018°06'0 0.0
2018-Jun-20 11:00N 59°19' E 018°06'0 0.0
2018-Jun-20 10:30N 59°19' E 018°06'0 0.0
2018-Jun-20 10:00N 59°19' E 018°06'0 0.0
2018-Jun-20 09:30N 59°19' E 018°06'0 0.0
2018-Jun-20 09:00N 59°19' E 018°06'0 0.0
2018-Jun-20 08:30N 59°19' E 018°06'0 0.0
2018-Jun-20 08:00N 59°19' E 018°06'1 2.5
2018-Jun-20 07:31N 59°19' E 018°08'611.1
2018-Jun-20 07:00N 59°22' E 018°17'510.0
2018-Jun-20 06:30N 59°22' E 018°27'5 9.2
2018-Jun-20 06:00N 59°27' E 018°24'611.2
2018-Jun-20 05:30N 59°31' E 018°31'510.1
2018-Jun-20 05:01N 59°34' E 018°39'612.2
2018-Jun-20 04:30N 59°37' E 018°49'611.5
2018-Jun-20 04:00N 59°41' E 018°58'815.9
2018-Jun-20 03:30N 59°44' E 019°12'816.0
2018-Jun-20 03:00N 59°48' E 019°26'816.8
2018-Jun-20 02:30N 59°54' E 019°38'3811.0
2018-Jun-19 23:03N 59°40' E 020°48'116.9
2018-Jun-19 22:58N 59°40' E 020°51'818.4
2018-Jun-19 22:30N 59°37' E 021°07'918.8
2018-Jun-19 22:00N 59°35' E 021°24'1018.9
2018-Jun-19 21:30N 59°32' E 021°42'1019.0
2018-Jun-19 20:58N 59°33' E 022°03'919.4
2018-Jun-19 20:30N 59°34' E 022°20'1019.4
2018-Jun-19 20:00N 59°36' E 022°39'1019.3
2018-Jun-19 19:30N 59°38' E 022°58'1019.0
2018-Jun-19 19:00N 59°40' E 023°16'918.9
2018-Jun-19 18:30N 59°42' E 023°34'1019.0
2018-Jun-19 18:00N 59°45' E 023°52'1019.2
2018-Jun-19 17:30N 59°48' E 024°10'1019.2
2018-Jun-19 17:00N 59°51' E 024°28'918.6
2018-Jun-19 16:30N 59°56' E 024°44'917.7
2018-Jun-19 16:00N 60°02' E 024°57'714.8
2018-Jun-19 15:31N 60°10' E 024°59'0 1.0
2018-Jun-19 15:00N 60°10' E 024°58'0 0.0
2018-Jun-19 14:30N 60°10' E 024°58'0 0.0
2018-Jun-19 14:00N 60°10' E 024°58'2 3.2
2018-Jun-19 13:30N 60°09' E 024°60'816.9
2018-Jun-19 13:00N 60°00' E 024°57'918.4
2018-Jun-19 12:31N 59°51' E 024°52'918.5
2018-Jun-19 12:00N 59°43' E 024°46'917.5
2018-Jun-19 11:30N 59°34' E 024°43'815.1
2018-Jun-19 11:01N 59°27' E 024°47'0 0.9
2018-Jun-19 10:31N 59°27' E 024°46'1 1.5
2018-Jun-19 10:00N 59°27' E 024°47'918.5
2018-Jun-19 09:31N 59°36' E 024°40'919.0
2018-Jun-19 09:01N 59°44' E 024°47'1019.6
2018-Jun-19 08:31N 59°54' E 024°55'1019.6
2018-Jun-19 08:01N 60°03' E 024°58'713.1
2018-Jun-19 07:30N 60°10' E 024°58'0 0.1
2018-Jun-19 06:48N 60°10' E 024°58'0 0.0
2018-Jun-19 06:29N 60°10' E 024°58'0 0.1
2018-Jun-19 06:00N 60°10' E 024°58'612.3
2018-Jun-19 05:30N 60°04' E 024°58'918.0
2018-Jun-19 05:00N 59°57' E 024°46'1019.0
2018-Jun-19 04:30N 59°52' E 024°30'918.6
2018-Jun-19 04:00N 59°48' E 024°13'918.7
2018-Jun-19 03:30N 59°46' E 023°55'918.5
2018-Jun-19 03:00N 59°44' E 023°37'918.4
2018-Jun-19 02:30N 59°42' E 023°19'918.6
2018-Jun-19 02:00N 59°40' E 023°01'918.6
2018-Jun-19 01:30N 59°38' E 022°43'918.8
2018-Jun-19 01:00N 59°36' E 022°25'918.8
2018-Jun-19 00:30N 59°33' E 022°07'918.6
2018-Jun-19 00:00N 59°32' E 021°49'918.7
2018-Jun-18 23:30N 59°33' E 021°31'918.7
2018-Jun-18 23:00N 59°35' E 021°13'2218.5
2018-Jun-18 21:48N 59°42' E 020°30'918.5
2018-Jun-18 21:19N 59°47' E 020°16'618.8
2018-Jun-18 21:00N 59°50' E 020°06'14 6.6
2018-Jun-18 18:55N 59°56' E 019°41'919.0
2018-Jun-18 18:28N 59°49' E 019°29'1019.1
2018-Jun-18 17:58N 59°44' E 019°13'918.2
2018-Jun-18 17:30N 59°41' E 018°58'611.6
2018-Jun-18 17:00N 59°37' E 018°49'612.5
2018-Jun-18 16:30N 59°34' E 018°38'510.1
2018-Jun-18 16:01N 59°31' E 018°30'611.5
2018-Jun-18 15:30N 59°26' E 018°23'510.3
2018-Jun-18 15:00N 59°21' E 018°26'510.6
2018-Jun-18 14:30N 59°22' E 018°16'510.7
2018-Jun-18 14:00N 59°19' E 018°06'0 0.6
2018-Jun-18 13:31N 59°19' E 018°06'0 0.0
2018-Jun-18 12:56N 59°19' E 018°06'0 0.0
2018-Jun-18 12:29N 59°19' E 018°06'0 0.0
2018-Jun-18 11:50N 59°19' E 018°06'0 0.0
2018-Jun-18 11:23N 59°19' E 018°06'0 0.0
2018-Jun-18 10:53N 59°19' E 018°06'0 0.0
2018-Jun-18 10:26N 59°19' E 018°06'0 0.0
2018-Jun-18 09:59N 59°19' E 018°06'0 0.0
2018-Jun-18 09:26N 59°19' E 018°06'0 0.0
2018-Jun-18 08:59N 59°19' E 018°06'0 0.0
2018-Jun-18 08:29N 59°19' E 018°06'0 0.0
2018-Jun-18 07:56N 59°19' E 018°06'1 2.9
2018-Jun-18 07:30N 59°19' E 018°08'611.1
2018-Jun-18 07:00N 59°22' E 018°17'510.1
2018-Jun-18 06:30N 59°22' E 018°27'5 9.8
2018-Jun-18 06:01N 59°27' E 018°24'611.3
2018-Jun-18 05:30N 59°31' E 018°31'510.3
2018-Jun-18 05:00N 59°34' E 018°39'612.4
2018-Jun-18 04:30N 59°37' E 018°50'611.4
2018-Jun-18 04:00N 59°41' E 018°58'815.6
2018-Jun-18 03:30N 59°44' E 019°12'815.5
2018-Jun-18 02:58N 59°48' E 019°27'715.6
2018-Jun-18 02:30N 59°54' E 019°37'3910.5
2018-Jun-17 22:44N 59°40' E 020°50'519.4
2018-Jun-17 22:30N 59°39' E 020°59'1019.4
2018-Jun-17 22:01N 59°36' E 021°17'1019.4
2018-Jun-17 21:31N 59°33' E 021°36'1019.5
2018-Jun-17 21:00N 59°32' E 021°55'1019.6
2018-Jun-17 20:31N 59°34' E 022°14'1019.3
2018-Jun-17 20:00N 59°35' E 022°33'918.7
2018-Jun-17 19:30N 59°37' E 022°51'918.9
2018-Jun-17 19:00N 59°39' E 023°09'918.8
2018-Jun-17 18:30N 59°41' E 023°27'1019.2
2018-Jun-17 18:01N 59°44' E 023°45'918.9
2018-Jun-17 17:31N 59°47' E 024°03'918.8
2018-Jun-17 17:01N 59°49' E 024°21'918.8
2018-Jun-17 16:30N 59°54' E 024°38'918.6
2018-Jun-17 16:01N 59°59' E 024°54'917.7
2018-Jun-17 15:31N 60°07' E 024°59'3 5.3
2018-Jun-17 15:00N 60°10' E 024°58'0 0.0
2018-Jun-17 14:29N 60°10' E 024°58'0 0.0
2018-Jun-17 13:59N 60°10' E 024°58'2 3.2
2018-Jun-17 13:31N 60°09' E 024°60'816.7
2018-Jun-17 13:00N 60°00' E 024°57'918.4
2018-Jun-17 12:30N 59°52' E 024°53'918.5
2018-Jun-17 12:00N 59°43' E 024°47'917.3
2018-Jun-17 11:30N 59°35' E 024°42'815.7
2018-Jun-17 11:00N 59°27' E 024°47'0 0.9
2018-Jun-17 10:30N 59°27' E 024°46'0 0.9
2018-Jun-17 10:00N 59°27' E 024°47'917.3
2018-Jun-17 09:30N 59°35' E 024°41'918.6
2018-Jun-17 09:00N 59°44' E 024°46'1019.3
2018-Jun-17 08:30N 59°53' E 024°51'1019.3
2018-Jun-17 08:00N 60°02' E 024°57'714.7
2018-Jun-17 07:31N 60°10' E 024°58'0 0.3
2018-Jun-17 06:59N 60°10' E 024°58'0 0.0
2018-Jun-17 06:30N 60°10' E 024°58'0 0.1
2018-Jun-17 06:01N 60°10' E 024°58'612.1
2018-Jun-17 05:30N 60°04' E 024°58'917.8
2018-Jun-17 05:00N 59°57' E 024°47'918.8
2018-Jun-17 04:30N 59°52' E 024°30'918.7
2018-Jun-17 04:00N 59°48' E 024°13'918.7
2018-Jun-17 03:30N 59°46' E 023°55'918.6
2018-Jun-17 03:00N 59°44' E 023°37'918.5
2018-Jun-17 02:30N 59°42' E 023°20'918.7
2018-Jun-17 02:00N 59°40' E 023°02'918.6
2018-Jun-17 01:30N 59°37' E 022°44'918.7
2018-Jun-17 01:00N 59°36' E 022°25'918.8
2018-Jun-17 00:30N 59°34' E 022°07'918.5
2018-Jun-17 00:00N 59°32' E 021°49'918.8
2018-Jun-16 23:30N 59°33' E 021°31'919.0
2018-Jun-16 23:00N 59°35' E 021°13'1018.8
2018-Jun-16 22:29N 59°37' E 020°54'1018.8
2018-Jun-16 21:59N 59°40' E 020°36'918.9
2018-Jun-16 21:30N 59°45' E 020°21'1019.0
2018-Jun-16 21:00N 59°50' E 020°05'918.0
2018-Jun-16 20:30N 59°58' E 019°55'815.1
2018-Jun-16 20:00N 60°05' E 019°56'2 3.6
2018-Jun-16 19:30N 60°03' E 019°54'1020.0
2018-Jun-16 19:00N 59°56' E 019°41'1020.8
2018-Jun-16 18:30N 59°49' E 019°27'1020.5
2018-Jun-16 18:00N 59°44' E 019°10'816.5
2018-Jun-16 17:31N 59°40' E 018°55'611.6
2018-Jun-16 17:01N 59°36' E 018°46'611.7
2018-Jun-16 16:30N 59°33' E 018°36'610.3
2018-Jun-16 15:58N 59°30' E 018°28'510.5
2018-Jun-16 15:30N 59°25' E 018°25'3 6.4
2018-Jun-16 15:00N 59°22' E 018°24'510.8
2018-Jun-16 14:30N 59°20' E 018°13'4 8.2
2018-Jun-16 14:00N 59°19' E 018°06'0 0.0
2018-Jun-16 13:31N 59°19' E 018°06'0 0.0
2018-Jun-16 12:59N 59°19' E 018°06'0 0.0
2018-Jun-16 12:29N 59°19' E 018°06'0 0.0
2018-Jun-16 11:59N 59°19' E 018°06'0 0.0
2018-Jun-16 11:29N 59°19' E 018°06'0 0.0
2018-Jun-16 10:59N 59°19' E 018°06'0 0.0
2018-Jun-16 10:29N 59°19' E 018°06'0 0.0
2018-Jun-16 09:56N 59°19' E 018°06'0 0.0
2018-Jun-16 09:29N 59°19' E 018°06'0 0.0
2018-Jun-16 08:59N 59°19' E 018°06'0 0.0
2018-Jun-16 08:29N 59°19' E 018°06'0 0.0
2018-Jun-16 08:00N 59°19' E 018°06'2 5.0
2018-Jun-16 07:31N 59°19' E 018°11'611.7
2018-Jun-16 07:00N 59°23' E 018°20'3 6.5
2018-Jun-16 06:30N 59°24' E 018°27'4 8.8
2018-Jun-16 06:00N 59°28' E 018°26'510.9
2018-Jun-16 05:30N 59°32' E 018°33'510.8
2018-Jun-16 05:00N 59°35' E 018°42'612.3
2018-Jun-16 04:30N 59°38' E 018°52'611.7
2018-Jun-16 04:00N 59°42' E 019°01'714.9
2018-Jun-16 03:30N 59°45' E 019°15'714.8
2018-Jun-16 03:00N 59°49' E 019°27'714.8
2018-Jun-16 02:30N 59°54' E 019°37'815.2
2018-Jun-16 02:00N 59°59' E 019°48'713.8
2018-Jun-16 01:30N 60°05' E 019°56'3 6.0
2018-Jun-16 01:00N 60°03' E 019°53'917.6
2018-Jun-16 00:30N 59°54' E 019°58'917.2
2018-Jun-16 00:00N 59°48' E 020°11'917.8
2018-Jun-15 23:29N 59°44' E 020°27'817.3
2018-Jun-15 23:00N 59°41' E 020°42'917.0
2018-Jun-15 22:30N 59°38' E 020°59'817.1
2018-Jun-15 22:00N 59°36' E 021°15'917.2
2018-Jun-15 21:30N 59°34' E 021°31'917.1
2018-Jun-15 21:00N 59°32' E 021°48'917.0
2018-Jun-15 20:30N 59°33' E 022°04'917.3
2018-Jun-15 20:00N 59°34' E 022°21'917.2
2018-Jun-15 19:30N 59°36' E 022°38'917.1
2018-Jun-15 19:00N 59°37' E 022°54'917.2
2018-Jun-15 18:30N 59°39' E 023°11'917.3
2018-Jun-15 18:00N 59°42' E 023°27'917.6
2018-Jun-15 17:30N 59°44' E 023°44'917.5
2018-Jun-15 17:00N 59°47' E 024°01'917.6
2018-Jun-15 16:31N 59°49' E 024°18'917.3
2018-Jun-15 16:00N 59°53' E 024°33'917.2
2018-Jun-15 15:30N 59°57' E 024°48'816.1
2018-Jun-15 15:00N 60°04' E 024°57'612.2
2018-Jun-15 14:31N 60°10' E 024°58'0 0.3
2018-Jun-15 14:00N 60°10' E 024°58'0 0.0
2018-Jun-15 13:30N 60°10' E 024°58'0 0.0
2018-Jun-15 12:59N 60°10' E 024°58'0 0.0
2018-Jun-15 12:29N 60°10' E 024°58'0 0.0
2018-Jun-15 11:59N 60°10' E 024°58'0 0.0
2018-Jun-15 11:29N 60°10' E 024°58'0 0.0
2018-Jun-15 10:59N 60°10' E 024°58'0 0.0
2018-Jun-15 10:29N 60°10' E 024°58'0 0.0
2018-Jun-15 09:59N 60°10' E 024°58'0 0.0
2018-Jun-15 09:30N 60°10' E 024°58'0 0.0
2018-Jun-15 08:59N 60°10' E 024°58'0 0.0
2018-Jun-15 08:29N 60°10' E 024°58'0 0.0
2018-Jun-15 07:59N 60°10' E 024°58'0 0.0
2018-Jun-15 07:29N 60°10' E 024°58'0 0.9
2018-Jun-15 07:00N 60°10' E 024°59'714.6
2018-Jun-15 06:31N 60°02' E 024°57'917.5
2018-Jun-15 06:00N 59°56' E 024°44'918.0
2018-Jun-15 05:30N 59°52' E 024°29'918.0
2018-Jun-15 05:00N 59°48' E 024°12'918.2
2018-Jun-15 04:30N 59°46' E 023°55'918.1
2018-Jun-15 04:01N 59°44' E 023°37'918.0
2018-Jun-15 03:31N 59°42' E 023°20'918.3
2018-Jun-15 03:01N 59°40' E 023°02'1118.2
2018-Jun-15 02:25N 59°37' E 022°41'718.0
2018-Jun-15 02:01N 59°36' E 022°27'1018.0
2018-Jun-15 01:27N 59°34' E 022°08'817.7
2018-Jun-15 01:01N 59°32' E 021°53'917.7
2018-Jun-15 00:30N 59°33' E 021°35'917.8
2018-Jun-15 00:01N 59°35' E 021°18'917.6
2018-Jun-14 23:30N 59°37' E 021°01'2617.4
2018-Jun-14 22:02N 59°47' E 020°15'1517.5
2018-Jun-14 21:10N 59°58' E 019°55'7 4.4
2018-Jun-14 19:38N 59°56' E 019°42'215.5
2018-Jun-14 19:30N 59°55' E 019°39'917.2
2018-Jun-14 18:59N 59°48' E 019°27'816.9
2018-Jun-14 18:30N 59°44' E 019°13'917.0
2018-Jun-14 18:00N 59°40' E 018°58'611.5
2018-Jun-14 17:30N 59°37' E 018°49'612.4
2018-Jun-14 17:00N 59°34' E 018°38'510.1
2018-Jun-14 16:30N 59°31' E 018°30'611.4
2018-Jun-14 16:01N 59°26' E 018°24'510.1
2018-Jun-14 15:30N 59°21' E 018°26'510.5
2018-Jun-14 15:00N 59°22' E 018°16'511.0
2018-Jun-14 14:30N 59°19' E 018°07'0 0.8
2018-Jun-14 14:00N 59°19' E 018°06'0 0.0
2018-Jun-14 13:24N 59°19' E 018°06'0 0.0
2018-Jun-14 13:00N 59°19' E 018°06'0 0.0
2018-Jun-14 12:30N 59°19' E 018°06'0 0.0
2018-Jun-14 11:57N 59°19' E 018°06'0 0.0
2018-Jun-14 11:30N 59°19' E 018°06'0 0.0
2018-Jun-14 11:00N 59°19' E 018°06'0 0.0
2018-Jun-14 10:30N 59°19' E 018°06'0 0.0
2018-Jun-14 10:00N 59°19' E 018°06'0 0.0
2018-Jun-14 09:30N 59°19' E 018°06'0 0.0
2018-Jun-14 09:00N 59°19' E 018°06'0 0.0
2018-Jun-14 08:30N 59°19' E 018°06'0 0.0
2018-Jun-14 08:00N 59°19' E 018°06'3 6.8
2018-Jun-14 07:30N 59°20' E 018°12'611.4
2018-Jun-14 07:00N 59°22' E 018°23'2 5.0
2018-Jun-14 06:30N 59°24' E 018°26'4 7.5
2018-Jun-14 06:00N 59°28' E 018°26'510.4
2018-Jun-14 05:30N 59°32' E 018°33'511.0
2018-Jun-14 05:00N 59°35' E 018°42'712.5
2018-Jun-14 04:28N 59°39' E 018°53'612.1
2018-Jun-14 03:59N 59°42' E 019°02'1015.4
2018-Jun-14 03:21N 59°46' E 019°20'615.3
2018-Jun-14 02:58N 59°50' E 019°29'715.4
2018-Jun-14 02:29N 59°55' E 019°40'815.4
2018-Jun-14 01:57N 60°01' E 019°51'2 1.8
2018-Jun-14 00:58N 60°02' E 019°54'1017.9
2018-Jun-14 00:24N 59°52' E 019°60'718.4
2018-Jun-14 00:00N 59°48' E 020°12'1018.5
2018-Jun-13 23:29N 59°44' E 020°28'917.5
2018-Jun-13 22:58N 59°40' E 020°45'817.5
2018-Jun-13 22:30N 59°38' E 020°60'917.5
2018-Jun-13 22:00N 59°36' E 021°17'917.3
2018-Jun-13 21:30N 59°34' E 021°33'917.1
2018-Jun-13 21:00N 59°32' E 021°50'917.1
2018-Jun-13 20:30N 59°33' E 022°07'917.2
2018-Jun-13 20:00N 59°35' E 022°23'816.9
2018-Jun-13 19:30N 59°36' E 022°40'817.0
2018-Jun-13 19:00N 59°38' E 022°56'917.0
2018-Jun-13 18:30N 59°40' E 023°13'917.2
2018-Jun-13 18:00N 59°42' E 023°29'917.3
2018-Jun-13 17:30N 59°44' E 023°46'917.2
2018-Jun-13 17:00N 59°47' E 024°02'917.1
2018-Jun-13 16:30N 59°49' E 024°18'816.9
2018-Jun-13 16:00N 59°53' E 024°33'816.9
2018-Jun-13 15:30N 59°57' E 024°48'816.0
2018-Jun-13 15:00N 60°04' E 024°57'612.2
2018-Jun-13 14:30N 60°10' E 024°58'0 0.2
2018-Jun-13 14:00N 60°10' E 024°58'0 0.0
2018-Jun-13 13:30N 60°10' E 024°58'0 0.0
2018-Jun-13 13:00N 60°10' E 024°58'0 0.0
2018-Jun-13 12:30N 60°10' E 024°58'0 0.0
2018-Jun-13 12:00N 60°10' E 024°58'0 0.0
2018-Jun-13 11:30N 60°10' E 024°58'0 0.0
2018-Jun-13 11:00N 60°10' E 024°58'0 0.0
2018-Jun-13 10:30N 60°10' E 024°58'0 0.0
2018-Jun-13 10:00N 60°10' E 024°58'0 0.0
2018-Jun-13 09:30N 60°10' E 024°58'0 0.0
2018-Jun-13 09:00N 60°10' E 024°58'0 0.0
2018-Jun-13 08:30N 60°10' E 024°58'0 0.0
2018-Jun-13 08:00N 60°10' E 024°58'0 0.0
2018-Jun-13 07:30N 60°10' E 024°58'0 0.9
2018-Jun-13 07:00N 60°10' E 024°59'714.4
2018-Jun-13 06:30N 60°02' E 024°57'917.2
2018-Jun-13 06:01N 59°56' E 024°45'917.7
2018-Jun-13 05:31N 59°52' E 024°30'917.6
2018-Jun-13 05:01N 59°48' E 024°13'918.1
2018-Jun-13 04:30N 59°46' E 023°56'918.1
2018-Jun-13 04:01N 59°44' E 023°38'917.9
2018-Jun-13 03:31N 59°42' E 023°21'918.0
2018-Jun-13 03:01N 59°40' E 023°04'917.8
2018-Jun-13 02:31N 59°38' E 022°47'917.8
2018-Jun-13 02:00N 59°36' E 022°29'917.7
2018-Jun-13 01:30N 59°34' E 022°12'1017.9
2018-Jun-13 00:58N 59°32' E 021°54'818.2
2018-Jun-13 00:30N 59°33' E 021°37'  
Track history (hours):
 
Tides and Currents Weather Stations Pressure Air Temp Water Temp Dewpoint Dewpoint Depression Visibility Wind Speed Wind Dir Waves Ship Positions

Mariella

Last reported at 2018-Jun-23 01:00 UTC. Time now 2018-Jun-23 00:57 UTC.
Position N 59°35' E 022°25'.

Length 177 m; draft 6.7 m.

Type: Ship (hazmat cat A). MMSI: 230181000.

Date/timePositionNaut miles runAvg speedWind from/ knotsBaromVisibWave heightAir tempDewpointWater temp
2018-Jun-23 01:00N 59°35' E 022°25'1019.0
2018-Jun-23 00:30N 59°33' E 022°07'1018.8
2018-Jun-22 23:57N 59°32' E 021°47'918.9
2018-Jun-22 23:30N 59°32' E 021°30'919.0
2018-Jun-22 23:01N 59°34' E 021°12'3618.5
2018-Jun-22 21:03N 59°50' E 020°07'118.8
2018-Jun-22 20:59N 59°50' E 020°05'13 6.4
2018-Jun-22 19:00N 59°57' E 019°43'1019.9
2018-Jun-22 18:30N 59°50' E 019°29'1019.6
2018-Jun-22 18:00N 59°44' E 019°13'918.4
2018-Jun-22 17:30N 59°40' E 018°57'611.4
2018-Jun-22 17:00N 59°37' E 018°48'612.4
2018-Jun-22 16:30N 59°34' E 018°38'510.1
2018-Jun-22 16:00N 59°31' E 018°30'611.6
2018-Jun-22 15:31N 59°26' E 018°24'4 7.9
2018-Jun-22 15:00N 59°22' E 018°25'510.6
2018-Jun-22 14:30N 59°21' E 018°14'5 9.6
2018-Jun-22 14:00N 59°19' E 018°06'0 0.1
2018-Jun-22 13:30N 59°19' E 018°06'0 0.0
2018-Jun-22 13:00N 59°19' E 018°06'0 0.0
2018-Jun-22 12:30N 59°19' E 018°06'0 0.0
2018-Jun-22 12:00N 59°19' E 018°06'0 0.0
2018-Jun-22 11:30N 59°19' E 018°06'0 0.0
2018-Jun-22 11:00N 59°19' E 018°06'0 0.0
2018-Jun-22 10:30N 59°19' E 018°06'0 0.0
2018-Jun-22 10:00N 59°19' E 018°06'0 0.0
2018-Jun-22 09:30N 59°19' E 018°06'0 0.0
2018-Jun-22 09:00N 59°19' E 018°06'0 0.0
2018-Jun-22 08:30N 59°19' E 018°06'0 0.0
2018-Jun-22 08:00N 59°19' E 018°06'1 1.7
2018-Jun-22 07:30N 59°19' E 018°07'510.6
2018-Jun-22 07:00N 59°22' E 018°16'510.7
2018-Jun-22 06:30N 59°22' E 018°27'510.2
2018-Jun-22 06:00N 59°26' E 018°24'611.2
2018-Jun-22 05:30N 59°31' E 018°31'510.2
2018-Jun-22 05:00N 59°34' E 018°39'612.3
2018-Jun-22 04:30N 59°37' E 018°49'611.3
2018-Jun-22 04:00N 59°41' E 018°58'815.9
2018-Jun-22 03:30N 59°44' E 019°12'816.0
2018-Jun-22 03:00N 59°49' E 019°24'816.2
2018-Jun-22 02:30N 59°55' E 019°36'4411.4
2018-Jun-21 22:39N 59°39' E 020°57'319.9
2018-Jun-21 22:30N 59°38' E 021°03'1019.9
2018-Jun-21 22:00N 59°35' E 021°21'1019.6
2018-Jun-21 21:30N 59°33' E 021°40'1618.1
2018-Jun-21 20:36N 59°34' E 022°12'1818.3
2018-Jun-21 19:36N 59°37' E 022°48'218.3
2018-Jun-21 19:30N 59°37' E 022°51'918.4
2018-Jun-21 19:00N 59°39' E 023°09'918.2
2018-Jun-21 18:30N 59°41' E 023°27'918.2
2018-Jun-21 18:00N 59°44' E 023°44'918.2
2018-Jun-21 17:30N 59°46' E 024°01'1120.2
2018-Jun-21 16:58N 59°50' E 024°22'816.4
2018-Jun-21 16:30N 59°53' E 024°35'918.3
2018-Jun-21 16:00N 59°58' E 024°51'917.8
2018-Jun-21 15:30N 60°06' E 024°59'4 7.9
2018-Jun-21 15:00N 60°10' E 024°58'0 0.0
2018-Jun-21 14:30N 60°10' E 024°58'0 0.0
2018-Jun-21 14:00N 60°10' E 024°58'2 3.1
2018-Jun-21 13:31N 60°09' E 024°60'917.0
2018-Jun-21 13:00N 60°00' E 024°57'919.2
2018-Jun-21 12:30N 59°51' E 024°53'1019.2
2018-Jun-21 12:00N 59°42' E 024°46'918.1
2018-Jun-21 11:30N 59°33' E 024°43'713.4
2018-Jun-21 11:01N 59°27' E 024°46'0 0.1
2018-Jun-21 10:31N 59°27' E 024°46'1 1.7
2018-Jun-21 10:01N 59°27' E 024°47'1019.7
2018-Jun-21 09:30N 59°36' E 024°40'1019.9
2018-Jun-21 08:59N 59°45' E 024°50'1020.0
2018-Jun-21 08:30N 59°55' E 024°55'1020.4
2018-Jun-21 08:00N 60°05' E 024°58'510.0
2018-Jun-21 07:29N 60°10' E 024°58'0 0.0
2018-Jun-21 06:56N 60°10' E 024°58'0 0.0
2018-Jun-21 06:30N 60°10' E 024°58'0 0.1
2018-Jun-21 06:00N 60°10' E 024°58'612.3
2018-Jun-21 05:31N 60°04' E 024°58'917.9
2018-Jun-21 05:01N 59°57' E 024°47'1019.2
2018-Jun-21 04:30N 59°52' E 024°30'1319.0
2018-Jun-21 03:50N 59°48' E 024°06'619.2
2018-Jun-21 03:30N 59°46' E 023°54'1019.1
2018-Jun-21 03:00N 59°43' E 023°36'918.9
2018-Jun-21 02:31N 59°41' E 023°18'918.9
2018-Jun-21 02:01N 59°40' E 022°59'1419.0
2018-Jun-21 01:17N 59°37' E 022°33'518.9
2018-Jun-21 01:00N 59°35' E 022°23'1618.8
2018-Jun-21 00:11N 59°32' E 021°53'318.6
2018-Jun-21 00:01N 59°32' E 021°47'918.8
2018-Jun-20 23:31N 59°33' E 021°28'1019.0
2018-Jun-20 23:00N 59°35' E 021°10'4812.6
2018-Jun-20 19:10N 59°58' E 019°46'321.2
2018-Jun-20 19:01N 59°56' E 019°41'1121.0
2018-Jun-20 18:30N 59°48' E 019°26'1020.5
2018-Jun-20 18:00N 59°43' E 019°08'816.0
2018-Jun-20 17:31N 59°39' E 018°55'612.1
2018-Jun-20 17:01N 59°36' E 018°45'611.6
2018-Jun-20 16:30N 59°33' E 018°35'510.4
2018-Jun-20 16:00N 59°29' E 018°27'510.3
2018-Jun-20 15:30N 59°24' E 018°26'3 6.1
2018-Jun-20 15:00N 59°22' E 018°22'611.4
2018-Jun-20 14:30N 59°20' E 018°12'3 6.4
2018-Jun-20 14:00N 59°19' E 018°06'0 0.0
2018-Jun-20 13:30N 59°19' E 018°06'0 0.0
2018-Jun-20 13:00N 59°19' E 018°06'0 0.0
2018-Jun-20 12:30N 59°19' E 018°06'0 0.0
2018-Jun-20 12:00N 59°19' E 018°06'0 0.0
2018-Jun-20 11:30N 59°19' E 018°06'0 0.0
2018-Jun-20 11:00N 59°19' E 018°06'0 0.0
2018-Jun-20 10:30N 59°19' E 018°06'0 0.0
2018-Jun-20 10:00N 59°19' E 018°06'0 0.0
2018-Jun-20 09:30N 59°19' E 018°06'0 0.0
2018-Jun-20 09:00N 59°19' E 018°06'0 0.0
2018-Jun-20 08:30N 59°19' E 018°06'0 0.0
2018-Jun-20 08:00N 59°19' E 018°06'1 2.5
2018-Jun-20 07:31N 59°19' E 018°08'611.1
2018-Jun-20 07:00N 59°22' E 018°17'510.0
2018-Jun-20 06:30N 59°22' E 018°27'5 9.2
2018-Jun-20 06:00N 59°27' E 018°24'611.2
2018-Jun-20 05:30N 59°31' E 018°31'510.1
2018-Jun-20 05:01N 59°34' E 018°39'612.2
2018-Jun-20 04:30N 59°37' E 018°49'611.5
2018-Jun-20 04:00N 59°41' E 018°58'815.9
2018-Jun-20 03:30N 59°44' E 019°12'816.0
2018-Jun-20 03:00N 59°48' E 019°26'816.8
2018-Jun-20 02:30N 59°54' E 019°38'3811.0
2018-Jun-19 23:03N 59°40' E 020°48'116.9
2018-Jun-19 22:58N 59°40' E 020°51'818.4
2018-Jun-19 22:30N 59°37' E 021°07'918.8
2018-Jun-19 22:00N 59°35' E 021°24'1018.9
2018-Jun-19 21:30N 59°32' E 021°42'1019.0
2018-Jun-19 20:58N 59°33' E 022°03'919.4
2018-Jun-19 20:30N 59°34' E 022°20'1019.4
2018-Jun-19 20:00N 59°36' E 022°39'1019.3
2018-Jun-19 19:30N 59°38' E 022°58'1019.0
2018-Jun-19 19:00N 59°40' E 023°16'918.9
2018-Jun-19 18:30N 59°42' E 023°34'1019.0
2018-Jun-19 18:00N 59°45' E 023°52'1019.2
2018-Jun-19 17:30N 59°48' E 024°10'1019.2
2018-Jun-19 17:00N 59°51' E 024°28'918.6
2018-Jun-19 16:30N 59°56' E 024°44'917.7
2018-Jun-19 16:00N 60°02' E 024°57'714.8
2018-Jun-19 15:31N 60°10' E 024°59'0 1.0
2018-Jun-19 15:00N 60°10' E 024°58'0 0.0
2018-Jun-19 14:30N 60°10' E 024°58'0 0.0
2018-Jun-19 14:00N 60°10' E 024°58'2 3.2
2018-Jun-19 13:30N 60°09' E 024°60'816.9
2018-Jun-19 13:00N 60°00' E 024°57'918.4
2018-Jun-19 12:31N 59°51' E 024°52'918.5
2018-Jun-19 12:00N 59°43' E 024°46'917.5
2018-Jun-19 11:30N 59°34' E 024°43'815.1
2018-Jun-19 11:01N 59°27' E 024°47'0 0.9
2018-Jun-19 10:31N 59°27' E 024°46'1 1.5
2018-Jun-19 10:00N 59°27' E 024°47'918.5
2018-Jun-19 09:31N 59°36' E 024°40'919.0
2018-Jun-19 09:01N 59°44' E 024°47'1019.6
2018-Jun-19 08:31N 59°54' E 024°55'1019.6
2018-Jun-19 08:01N 60°03' E 024°58'713.1
2018-Jun-19 07:30N 60°10' E 024°58'0 0.1
2018-Jun-19 06:48N 60°10' E 024°58'0 0.0
2018-Jun-19 06:29N 60°10' E 024°58'0 0.1
2018-Jun-19 06:00N 60°10' E 024°58'612.3
2018-Jun-19 05:30N 60°04' E 024°58'918.0
2018-Jun-19 05:00N 59°57' E 024°46'1019.0
2018-Jun-19 04:30N 59°52' E 024°30'918.6
2018-Jun-19 04:00N 59°48' E 024°13'918.7
2018-Jun-19 03:30N 59°46' E 023°55'918.5
2018-Jun-19 03:00N 59°44' E 023°37'918.4
2018-Jun-19 02:30N 59°42' E 023°19'918.6
2018-Jun-19 02:00N 59°40' E 023°01'918.6
2018-Jun-19 01:30N 59°38' E 022°43'918.8
2018-Jun-19 01:00N 59°36' E 022°25'918.8
2018-Jun-19 00:30N 59°33' E 022°07'918.6
2018-Jun-19 00:00N 59°32' E 021°49'918.7
2018-Jun-18 23:30N 59°33' E 021°31'918.7
2018-Jun-18 23:00N 59°35' E 021°13'2218.5
2018-Jun-18 21:48N 59°42' E 020°30'918.5
2018-Jun-18 21:19N 59°47' E 020°16'618.8
2018-Jun-18 21:00N 59°50' E 020°06'14 6.6
2018-Jun-18 18:55N 59°56' E 019°41'919.0
2018-Jun-18 18:28N 59°49' E 019°29'1019.1
2018-Jun-18 17:58N 59°44' E 019°13'918.2
2018-Jun-18 17:30N 59°41' E 018°58'611.6
2018-Jun-18 17:00N 59°37' E 018°49'612.5
2018-Jun-18 16:30N 59°34' E 018°38'510.1
2018-Jun-18 16:01N 59°31' E 018°30'611.5
2018-Jun-18 15:30N 59°26' E 018°23'510.3
2018-Jun-18 15:00N 59°21' E 018°26'510.6
2018-Jun-18 14:30N 59°22' E 018°16'510.7
2018-Jun-18 14:00N 59°19' E 018°06'0 0.6
2018-Jun-18 13:31N 59°19' E 018°06'0 0.0
2018-Jun-18 12:56N 59°19' E 018°06'0 0.0
2018-Jun-18 12:29N 59°19' E 018°06'0 0.0
2018-Jun-18 11:50N 59°19' E 018°06'0 0.0
2018-Jun-18 11:23N 59°19' E 018°06'0 0.0
2018-Jun-18 10:53N 59°19' E 018°06'0 0.0
2018-Jun-18 10:26N 59°19' E 018°06'0 0.0
2018-Jun-18 09:59N 59°19' E 018°06'0 0.0
2018-Jun-18 09:26N 59°19' E 018°06'0 0.0
2018-Jun-18 08:59N 59°19' E 018°06'0 0.0
2018-Jun-18 08:29N 59°19' E 018°06'0 0.0
2018-Jun-18 07:56N 59°19' E 018°06'1 2.9
2018-Jun-18 07:30N 59°19' E 018°08'611.1
2018-Jun-18 07:00N 59°22' E 018°17'510.1
2018-Jun-18 06:30N 59°22' E 018°27'5 9.8
2018-Jun-18 06:01N 59°27' E 018°24'611.3
2018-Jun-18 05:30N 59°31' E 018°31'510.3
2018-Jun-18 05:00N 59°34' E 018°39'612.4
2018-Jun-18 04:30N 59°37' E 018°50'611.4
2018-Jun-18 04:00N 59°41' E 018°58'815.6
2018-Jun-18 03:30N 59°44' E 019°12'815.5
2018-Jun-18 02:58N 59°48' E 019°27'715.6
2018-Jun-18 02:30N 59°54' E 019°37'3910.5
2018-Jun-17 22:44N 59°40' E 020°50'519.4
2018-Jun-17 22:30N 59°39' E 020°59'1019.4
2018-Jun-17 22:01N 59°36' E 021°17'1019.4
2018-Jun-17 21:31N 59°33' E 021°36'1019.5
2018-Jun-17 21:00N 59°32' E 021°55'1019.6
2018-Jun-17 20:31N 59°34' E 022°14'1019.3
2018-Jun-17 20:00N 59°35' E 022°33'918.7
2018-Jun-17 19:30N 59°37' E 022°51'918.9
2018-Jun-17 19:00N 59°39' E 023°09'918.8
2018-Jun-17 18:30N 59°41' E 023°27'1019.2
2018-Jun-17 18:01N 59°44' E 023°45'918.9
2018-Jun-17 17:31N 59°47' E 024°03'918.8
2018-Jun-17 17:01N 59°49' E 024°21'918.8
2018-Jun-17 16:30N 59°54' E 024°38'918.6
2018-Jun-17 16:01N 59°59' E 024°54'917.7
2018-Jun-17 15:31N 60°07' E 024°59'3 5.3
2018-Jun-17 15:00N 60°10' E 024°58'0 0.0
2018-Jun-17 14:29N 60°10' E 024°58'0 0.0
2018-Jun-17 13:59N 60°10' E 024°58'2 3.2
2018-Jun-17 13:31N 60°09' E 024°60'816.7
2018-Jun-17 13:00N 60°00' E 024°57'918.4
2018-Jun-17 12:30N 59°52' E 024°53'918.5
2018-Jun-17 12:00N 59°43' E 024°47'917.3
2018-Jun-17 11:30N 59°35' E 024°42'815.7
2018-Jun-17 11:00N 59°27' E 024°47'0 0.9
2018-Jun-17 10:30N 59°27' E 024°46'0 0.9
2018-Jun-17 10:00N 59°27' E 024°47'917.3
2018-Jun-17 09:30N 59°35' E 024°41'918.6
2018-Jun-17 09:00N 59°44' E 024°46'1019.3
2018-Jun-17 08:30N 59°53' E 024°51'1019.3
2018-Jun-17 08:00N 60°02' E 024°57'714.7
2018-Jun-17 07:31N 60°10' E 024°58'0 0.3
2018-Jun-17 06:59N 60°10' E 024°58'0 0.0
2018-Jun-17 06:30N 60°10' E 024°58'0 0.1
2018-Jun-17 06:01N 60°10' E 024°58'612.1
2018-Jun-17 05:30N 60°04' E 024°58'917.8
2018-Jun-17 05:00N 59°57' E 024°47'918.8
2018-Jun-17 04:30N 59°52' E 024°30'918.7
2018-Jun-17 04:00N 59°48' E 024°13'918.7
2018-Jun-17 03:30N 59°46' E 023°55'918.6
2018-Jun-17 03:00N 59°44' E 023°37'918.5
2018-Jun-17 02:30N 59°42' E 023°20'918.7
2018-Jun-17 02:00N 59°40' E 023°02'918.6
2018-Jun-17 01:30N 59°37' E 022°44'918.7
2018-Jun-17 01:00N 59°36' E 022°25'918.8
2018-Jun-17 00:30N 59°34' E 022°07'918.5
2018-Jun-17 00:00N 59°32' E 021°49'918.8
2018-Jun-16 23:30N 59°33' E 021°31'919.0
2018-Jun-16 23:00N 59°35' E 021°13'1018.8
2018-Jun-16 22:29N 59°37' E 020°54'1018.8
2018-Jun-16 21:59N 59°40' E 020°36'918.9
2018-Jun-16 21:30N 59°45' E 020°21'1019.0
2018-Jun-16 21:00N 59°50' E 020°05'918.0
2018-Jun-16 20:30N 59°58' E 019°55'815.1
2018-Jun-16 20:00N 60°05' E 019°56'2 3.6
2018-Jun-16 19:30N 60°03' E 019°54'1020.0
2018-Jun-16 19:00N 59°56' E 019°41'1020.8
2018-Jun-16 18:30N 59°49' E 019°27'1020.5
2018-Jun-16 18:00N 59°44' E 019°10'816.5
2018-Jun-16 17:31N 59°40' E 018°55'611.6
2018-Jun-16 17:01N 59°36' E 018°46'611.7
2018-Jun-16 16:30N 59°33' E 018°36'610.3
2018-Jun-16 15:58N 59°30' E 018°28'510.5
2018-Jun-16 15:30N 59°25' E 018°25'3 6.4
2018-Jun-16 15:00N 59°22' E 018°24'510.8
2018-Jun-16 14:30N 59°20' E 018°13'4 8.2
2018-Jun-16 14:00N 59°19' E 018°06'0 0.0
2018-Jun-16 13:31N 59°19' E 018°06'0 0.0
2018-Jun-16 12:59N 59°19' E 018°06'0 0.0
2018-Jun-16 12:29N 59°19' E 018°06'0 0.0
2018-Jun-16 11:59N 59°19' E 018°06'0 0.0
2018-Jun-16 11:29N 59°19' E 018°06'0 0.0
2018-Jun-16 10:59N 59°19' E 018°06'0 0.0
2018-Jun-16 10:29N 59°19' E 018°06'0 0.0
2018-Jun-16 09:56N 59°19' E 018°06'0 0.0
2018-Jun-16 09:29N 59°19' E 018°06'0 0.0
2018-Jun-16 08:59N 59°19' E 018°06'0 0.0
2018-Jun-16 08:29N 59°19' E 018°06'0 0.0
2018-Jun-16 08:00N 59°19' E 018°06'2 5.0
2018-Jun-16 07:31N 59°19' E 018°11'611.7
2018-Jun-16 07:00N 59°23' E 018°20'3 6.5
2018-Jun-16 06:30N 59°24' E 018°27'4 8.8
2018-Jun-16 06:00N 59°28' E 018°26'510.9
2018-Jun-16 05:30N 59°32' E 018°33'510.8
2018-Jun-16 05:00N 59°35' E 018°42'612.3
2018-Jun-16 04:30N 59°38' E 018°52'611.7
2018-Jun-16 04:00N 59°42' E 019°01'714.9
2018-Jun-16 03:30N 59°45' E 019°15'714.8
2018-Jun-16 03:00N 59°49' E 019°27'714.8
2018-Jun-16 02:30N 59°54' E 019°37'815.2
2018-Jun-16 02:00N 59°59' E 019°48'713.8
2018-Jun-16 01:30N 60°05' E 019°56'3 6.0
2018-Jun-16 01:00N 60°03' E 019°53'917.6
2018-Jun-16 00:30N 59°54' E 019°58'917.2
2018-Jun-16 00:00N 59°48' E 020°11'917.8
2018-Jun-15 23:29N 59°44' E 020°27'817.3
2018-Jun-15 23:00N 59°41' E 020°42'917.0
2018-Jun-15 22:30N 59°38' E 020°59'817.1
2018-Jun-15 22:00N 59°36' E 021°15'917.2
2018-Jun-15 21:30N 59°34' E 021°31'917.1
2018-Jun-15 21:00N 59°32' E 021°48'917.0
2018-Jun-15 20:30N 59°33' E 022°04'917.3
2018-Jun-15 20:00N 59°34' E 022°21'917.2
2018-Jun-15 19:30N 59°36' E 022°38'917.1
2018-Jun-15 19:00N 59°37' E 022°54'917.2
2018-Jun-15 18:30N 59°39' E 023°11'917.3
2018-Jun-15 18:00N 59°42' E 023°27'917.6
2018-Jun-15 17:30N 59°44' E 023°44'917.5
2018-Jun-15 17:00N 59°47' E 024°01'917.6
2018-Jun-15 16:31N 59°49' E 024°18'917.3
2018-Jun-15 16:00N 59°53' E 024°33'917.2
2018-Jun-15 15:30N 59°57' E 024°48'816.1
2018-Jun-15 15:00N 60°04' E 024°57'612.2
2018-Jun-15 14:31N 60°10' E 024°58'0 0.3
2018-Jun-15 14:00N 60°10' E 024°58'0 0.0
2018-Jun-15 13:30N 60°10' E 024°58'0 0.0
2018-Jun-15 12:59N 60°10' E 024°58'0 0.0
2018-Jun-15 12:29N 60°10' E 024°58'0 0.0
2018-Jun-15 11:59N 60°10' E 024°58'0 0.0
2018-Jun-15 11:29N 60°10' E 024°58'0 0.0
2018-Jun-15 10:59N 60°10' E 024°58'0 0.0
2018-Jun-15 10:29N 60°10' E 024°58'0 0.0
2018-Jun-15 09:59N 60°10' E 024°58'0 0.0
2018-Jun-15 09:30N 60°10' E 024°58'0 0.0
2018-Jun-15 08:59N 60°10' E 024°58'0 0.0
2018-Jun-15 08:29N 60°10' E 024°58'0 0.0
2018-Jun-15 07:59N 60°10' E 024°58'0 0.0
2018-Jun-15 07:29N 60°10' E 024°58'0 0.9
2018-Jun-15 07:00N 60°10' E 024°59'714.6
2018-Jun-15 06:31N 60°02' E 024°57'917.5
2018-Jun-15 06:00N 59°56' E 024°44'918.0
2018-Jun-15 05:30N 59°52' E 024°29'918.0
2018-Jun-15 05:00N 59°48' E 024°12'918.2
2018-Jun-15 04:30N 59°46' E 023°55'918.1
2018-Jun-15 04:01N 59°44' E 023°37'918.0
2018-Jun-15 03:31N 59°42' E 023°20'918.3
2018-Jun-15 03:01N 59°40' E 023°02'1118.2
2018-Jun-15 02:25N 59°37' E 022°41'718.0
2018-Jun-15 02:01N 59°36' E 022°27'1018.0
2018-Jun-15 01:27N 59°34' E 022°08'817.7
2018-Jun-15 01:01N 59°32' E 021°53'917.7
2018-Jun-15 00:30N 59°33' E 021°35'917.8
2018-Jun-15 00:01N 59°35' E 021°18'917.6
2018-Jun-14 23:30N 59°37' E 021°01'2617.4
2018-Jun-14 22:02N 59°47' E 020°15'1517.5
2018-Jun-14 21:10N 59°58' E 019°55'7 4.4
2018-Jun-14 19:38N 59°56' E 019°42'215.5
2018-Jun-14 19:30N 59°55' E 019°39'917.2
2018-Jun-14 18:59N 59°48' E 019°27'816.9
2018-Jun-14 18:30N 59°44' E 019°13'917.0
2018-Jun-14 18:00N 59°40' E 018°58'611.5
2018-Jun-14 17:30N 59°37' E 018°49'612.4
2018-Jun-14 17:00N 59°34' E 018°38'510.1
2018-Jun-14 16:30N 59°31' E 018°30'611.4
2018-Jun-14 16:01N 59°26' E 018°24'510.1
2018-Jun-14 15:30N 59°21' E 018°26'510.5
2018-Jun-14 15:00N 59°22' E 018°16'511.0
2018-Jun-14 14:30N 59°19' E 018°07'0 0.8
2018-Jun-14 14:00N 59°19' E 018°06'0 0.0
2018-Jun-14 13:24N 59°19' E 018°06'0 0.0
2018-Jun-14 13:00N 59°19' E 018°06'0 0.0
2018-Jun-14 12:30N 59°19' E 018°06'0 0.0
2018-Jun-14 11:57N 59°19' E 018°06'0 0.0
2018-Jun-14 11:30N 59°19' E 018°06'0 0.0
2018-Jun-14 11:00N 59°19' E 018°06'0 0.0
2018-Jun-14 10:30N 59°19' E 018°06'0 0.0
2018-Jun-14 10:00N 59°19' E 018°06'0 0.0
2018-Jun-14 09:30N 59°19' E 018°06'0 0.0
2018-Jun-14 09:00N 59°19' E 018°06'0 0.0
2018-Jun-14 08:30N 59°19' E 018°06'0 0.0
2018-Jun-14 08:00N 59°19' E 018°06'3 6.8
2018-Jun-14 07:30N 59°20' E 018°12'611.4
2018-Jun-14 07:00N 59°22' E 018°23'2 5.0
2018-Jun-14 06:30N 59°24' E 018°26'4 7.5
2018-Jun-14 06:00N 59°28' E 018°26'510.4
2018-Jun-14 05:30N 59°32' E 018°33'511.0
2018-Jun-14 05:00N 59°35' E 018°42'712.5
2018-Jun-14 04:28N 59°39' E 018°53'612.1
2018-Jun-14 03:59N 59°42' E 019°02'1015.4
2018-Jun-14 03:21N 59°46' E 019°20'615.3
2018-Jun-14 02:58N 59°50' E 019°29'715.4
2018-Jun-14 02:29N 59°55' E 019°40'815.4
2018-Jun-14 01:57N 60°01' E 019°51'2 1.8
2018-Jun-14 00:58N 60°02' E 019°54'1017.9
2018-Jun-14 00:24N 59°52' E 019°60'718.4
2018-Jun-14 00:00N 59°48' E 020°12'1018.5
2018-Jun-13 23:29N 59°44' E 020°28'917.5
2018-Jun-13 22:58N 59°40' E 020°45'817.5
2018-Jun-13 22:30N 59°38' E 020°60'917.5
2018-Jun-13 22:00N 59°36' E 021°17'917.3
2018-Jun-13 21:30N 59°34' E 021°33'917.1
2018-Jun-13 21:00N 59°32' E 021°50'917.1
2018-Jun-13 20:30N 59°33' E 022°07'917.2
2018-Jun-13 20:00N 59°35' E 022°23'816.9
2018-Jun-13 19:30N 59°36' E 022°40'817.0
2018-Jun-13 19:00N 59°38' E 022°56'917.0
2018-Jun-13 18:30N 59°40' E 023°13'917.2
2018-Jun-13 18:00N 59°42' E 023°29'917.3
2018-Jun-13 17:30N 59°44' E 023°46'917.2
2018-Jun-13 17:00N 59°47' E 024°02'917.1
2018-Jun-13 16:30N 59°49' E 024°18'816.9
2018-Jun-13 16:00N 59°53' E 024°33'816.9
2018-Jun-13 15:30N 59°57' E 024°48'816.0
2018-Jun-13 15:00N 60°04' E 024°57'612.2
2018-Jun-13 14:30N 60°10' E 024°58'0 0.2
2018-Jun-13 14:00N 60°10' E 024°58'0 0.0
2018-Jun-13 13:30N 60°10' E 024°58'0 0.0
2018-Jun-13 13:00N 60°10' E 024°58'0 0.0
2018-Jun-13 12:30N 60°10' E 024°58'0 0.0
2018-Jun-13 12:00N 60°10' E 024°58'0 0.0
2018-Jun-13 11:30N 60°10' E 024°58'0 0.0
2018-Jun-13 11:00N 60°10' E 024°58'0 0.0
2018-Jun-13 10:30N 60°10' E 024°58'0 0.0
2018-Jun-13 10:00N 60°10' E 024°58'0 0.0
2018-Jun-13 09:30N 60°10' E 024°58'0 0.0
2018-Jun-13 09:00N 60°10' E 024°58'0 0.0
2018-Jun-13 08:30N 60°10' E 024°58'0 0.0
2018-Jun-13 08:00N 60°10' E 024°58'0 0.0
2018-Jun-13 07:30N 60°10' E 024°58'0 0.9
2018-Jun-13 07:00N 60°10' E 024°59'714.4
2018-Jun-13 06:30N 60°02' E 024°57'917.2
2018-Jun-13 06:01N 59°56' E 024°45'917.7
2018-Jun-13 05:31N 59°52' E 024°30'917.6
2018-Jun-13 05:01N 59°48' E 024°13'918.1
2018-Jun-13 04:30N 59°46' E 023°56'918.1
2018-Jun-13 04:01N 59°44' E 023°38'917.9
2018-Jun-13 03:31N 59°42' E 023°21'918.0
2018-Jun-13 03:01N 59°40' E 023°04'917.8
2018-Jun-13 02:31N 59°38' E 022°47'917.8
2018-Jun-13 02:00N 59°36' E 022°29'917.7
2018-Jun-13 01:30N 59°34' E 022°12'1017.9
2018-Jun-13 00:58N 59°32' E 021°54'818.2
2018-Jun-13 00:30N 59°33' E 021°37'  

Dump ship's entire track history